Disclaimer

Please do not use the information listed here in-flight or in-navigation, as they are not provided to us by the airports but are provided by volunteers, so they might be outdated.

Search


Regions


Airport information page

Radio informations:
TARGU MURES TWR - 125.9 MHz
TARGU MURES APP - 121.9 MHz

Airport informations:
Latitude: 46° 28' 03.77" N
Longitude: 024° 24' 45.09" E
Elevation: 963 feet - 294 meters
Operating hours: Remarks
Operating agency: Civil government, landing fees and diplomatic clearance may be required
Timezone: UTC+2(+3DT)
Fuel: N/A

Runway information:
07/25 - 6562 x 98 feet< - >2000 x 30 meters

Recent METARs:
LRTM 210200Z AUTO 08003KT 5000 FEW029/// OVC042/// 03/02 Q1015 REDZ
LRTM 210230Z AUTO 11003KT 6000 FEW029/// OVC041/// 03/02 Q1015
LRTM 210300Z AUTO VRB01KT 7000 SCT033/// OVC043/// 03/02 Q1015

Airport on the map: